createdAt,value
2019-04-07T00:00:01.824Z,99.99
2019-04-07T00:01:02.329Z,99.99
2019-04-07T00:02:01.801Z,99.99
2019-04-07T00:03:02.626Z,99.99
2019-04-07T00:04:02.215Z,99.99
2019-04-07T00:05:14.598Z,99.99
2019-04-07T00:06:01.959Z,99.99
2019-04-07T00:07:02.298Z,99.99
2019-04-07T00:08:01.842Z,99.99
2019-04-07T00:09:02.006Z,99.99
2019-04-07T00:10:02.002Z,99.99
2019-04-07T00:11:02.978Z,99.99
2019-04-07T00:12:02.003Z,99.99
2019-04-07T00:13:01.999Z,99.99
2019-04-07T00:14:02.635Z,99.99
2019-04-07T00:15:01.968Z,99.99
2019-04-07T00:16:02.724Z,99.99
2019-04-07T00:17:01.815Z,99.99
2019-04-07T00:18:02.308Z,99.99
2019-04-07T00:19:02.268Z,99.99
2019-04-07T00:20:01.684Z,99.99
2019-04-07T00:21:02.606Z,99.99
2019-04-07T00:22:01.920Z,99.99
2019-04-07T00:23:02.060Z,99.99
2019-04-07T00:24:04.664Z,99.99
2019-04-07T00:25:02.577Z,99.99
2019-04-07T00:26:02.580Z,99.99
2019-04-07T00:27:02.584Z,99.99
2019-04-07T00:28:02.541Z,99.99
2019-04-07T00:29:02.387Z,99.99
2019-04-07T00:30:02.421Z,99.99
2019-04-07T00:31:02.491Z,99.99
2019-04-07T00:32:02.576Z,99.99
2019-04-07T00:33:01.930Z,99.99
2019-04-07T00:34:01.853Z,99.99
2019-04-07T00:35:03.031Z,99.99
2019-04-07T00:36:01.838Z,99.99
2019-04-07T00:37:02.184Z,99.99
2019-04-07T00:38:02.213Z,99.99
2019-04-07T00:39:01.887Z,99.99
2019-04-07T00:40:02.266Z,99.99
2019-04-07T00:41:01.835Z,99.99
2019-04-07T00:42:01.855Z,99.99
2019-04-07T00:43:02.058Z,99.99
2019-04-07T00:44:02.458Z,99.99
2019-04-07T00:45:02.150Z,99.99
2019-04-07T00:46:01.511Z,99.99
2019-04-07T00:47:02.207Z,99.99
2019-04-07T00:48:01.784Z,99.99
2019-04-07T00:49:01.710Z,99.99
2019-04-07T00:50:02.245Z,99.99
2019-04-07T00:51:01.759Z,99.99
2019-04-07T00:52:01.792Z,99.99
2019-04-07T00:53:01.730Z,99.99
2019-04-07T00:54:02.162Z,99.99
2019-04-07T00:55:01.545Z,99.99
2019-04-07T00:56:01.873Z,99.99
2019-04-07T00:57:01.933Z,99.99
2019-04-07T00:58:02.430Z,99.99
2019-04-07T00:59:02.643Z,99.99
2019-04-07T01:00:01.718Z,99.99
2019-04-07T01:01:02.182Z,99.99
2019-04-07T01:02:01.654Z,99.99
2019-04-07T01:03:01.942Z,99.99
2019-04-07T01:04:02.274Z,99.99
2019-04-07T01:05:02.565Z,99.99
2019-04-07T01:06:02.150Z,99.99
2019-04-07T01:07:01.385Z,99.99
2019-04-07T01:08:01.770Z,99.99
2019-04-07T01:09:01.782Z,99.99
2019-04-07T01:10:02.097Z,99.99
2019-04-07T01:11:01.602Z,99.99
2019-04-07T01:12:01.709Z,99.99
2019-04-07T01:13:01.644Z,99.99
2019-04-07T01:14:01.614Z,99.99
2019-04-07T01:15:02.291Z,99.99
2019-04-07T01:16:01.552Z,99.99
2019-04-07T01:17:02.405Z,99.99
2019-04-07T01:18:02.121Z,99.99
2019-04-07T01:19:01.571Z,99.99
2019-04-07T01:20:02.937Z,99.99
2019-04-07T01:21:02.222Z,99.99
2019-04-07T01:22:01.513Z,99.99
2019-04-07T01:23:01.627Z,99.99
2019-04-07T01:24:01.260Z,99.99
2019-04-07T01:25:01.854Z,99.99
2019-04-07T01:26:01.944Z,99.99
2019-04-07T01:27:01.478Z,99.99
2019-04-07T01:28:01.980Z,99.99
2019-04-07T01:29:01.650Z,99.99
2019-04-07T01:30:02.098Z,99.99
2019-04-07T01:31:01.497Z,99.99
2019-04-07T01:32:01.861Z,99.99
2019-04-07T01:33:01.181Z,99.99
2019-04-07T01:34:02.141Z,99.99
2019-04-07T01:35:02.467Z,99.99
2019-04-07T01:36:02.089Z,99.99
2019-04-07T01:37:01.404Z,99.99
2019-04-07T01:38:02.442Z,99.99
2019-04-07T01:39:02.081Z,99.99
2019-04-07T01:40:02.292Z,99.99
2019-04-07T01:41:01.978Z,99.99
2019-04-07T01:42:01.604Z,99.99
2019-04-07T01:43:01.479Z,99.99
2019-04-07T01:44:01.107Z,99.99
2019-04-07T01:45:01.740Z,99.99
2019-04-07T01:46:01.336Z,99.99
2019-04-07T01:47:01.405Z,99.99
2019-04-07T01:48:01.831Z,99.99
2019-04-07T01:49:01.313Z,99.99
2019-04-07T01:50:01.848Z,99.99
2019-04-07T01:51:02.334Z,99.99
2019-04-07T01:52:01.855Z,99.99
2019-04-07T01:53:01.610Z,99.99
2019-04-07T01:54:01.281Z,99.99
2019-04-07T01:55:01.411Z,99.99
2019-04-07T01:56:01.795Z,99.99
2019-04-07T01:57:01.493Z,99.99
2019-04-07T01:58:01.970Z,99.99
2019-04-07T01:59:01.532Z,99.99
2019-04-07T02:00:01.918Z,99.99
2019-04-07T02:01:01.982Z,99.99
2019-04-07T02:02:02.061Z,99.99
2019-04-07T02:03:01.222Z,99.99
2019-04-07T02:04:01.583Z,99.99
2019-04-07T02:05:01.341Z,99.99
2019-04-07T02:06:05.948Z,99.99
2019-04-07T02:07:01.770Z,99.99
2019-04-07T02:08:01.689Z,99.99
2019-04-07T02:09:01.789Z,99.99
2019-04-07T02:10:00.911Z,99.99
2019-04-07T02:11:01.623Z,99.99
2019-04-07T02:12:01.871Z,99.99
2019-04-07T02:13:01.055Z,99.99
2019-04-07T02:14:01.440Z,99.99
2019-04-07T02:15:01.119Z,99.99
2019-04-07T02:16:01.516Z,99.99
2019-04-07T02:17:01.881Z,99.99
2019-04-07T02:18:01.522Z,99.99
2019-04-07T02:19:01.097Z,99.99
2019-04-07T02:20:01.330Z,99.99
2019-04-07T02:21:02.114Z,99.99
2019-04-07T02:22:01.583Z,99.99
2019-04-07T02:23:01.082Z,99.99
2019-04-07T02:24:01.508Z,99.99
2019-04-07T02:25:01.843Z,99.99
2019-04-07T02:26:01.481Z,99.99
2019-04-07T02:27:01.108Z,99.99
2019-04-07T02:28:01.100Z,99.99
2019-04-07T02:29:01.592Z,99.99
2019-04-07T02:30:01.318Z,99.99
2019-04-07T02:31:01.445Z,99.99
2019-04-07T02:32:01.386Z,99.99
2019-04-07T02:33:02.050Z,99.99
2019-04-07T02:34:03.144Z,99.99
2019-04-07T02:35:01.637Z,99.99
2019-04-07T02:36:25.607Z,99.99
2019-04-07T02:37:00.966Z,99.99
2019-04-07T02:38:02.030Z,99.99
2019-04-07T02:39:00.945Z,99.99
2019-04-07T02:40:02.534Z,99.99
2019-04-07T02:41:01.761Z,99.99
2019-04-07T02:42:00.938Z,99.99
2019-04-07T02:43:01.847Z,99.99
2019-04-07T02:44:02.824Z,99.99
2019-04-07T02:45:01.755Z,99.99
2019-04-07T02:46:00.897Z,99.99
2019-04-07T02:47:01.267Z,99.99
2019-04-07T02:48:01.129Z,99.99
2019-04-07T02:49:01.846Z,99.99
2019-04-07T02:50:02.167Z,99.99
2019-04-07T02:51:01.372Z,99.99
2019-04-07T02:52:00.900Z,99.99
2019-04-07T02:53:01.822Z,99.99
2019-04-07T02:54:02.487Z,99.99
2019-04-07T02:55:02.543Z,99.99
2019-04-07T02:56:01.954Z,99.99
2019-04-07T02:57:00.863Z,99.99
2019-04-07T02:58:01.490Z,99.99
2019-04-07T02:59:01.942Z,99.99
2019-04-07T03:00:01.091Z,99.99
2019-04-07T03:01:01.766Z,99.99
2019-04-07T03:02:01.497Z,99.99
2019-04-07T03:03:01.611Z,99.99
2019-04-07T03:04:01.702Z,99.99
2019-04-07T03:05:02.127Z,99.99
2019-04-07T03:06:00.495Z,99.99
2019-04-07T03:07:01.215Z,99.99
2019-04-07T03:08:01.858Z,99.99
2019-04-07T03:09:01.860Z,99.99
2019-04-07T03:10:00.463Z,99.99
2019-04-07T03:11:01.987Z,99.99
2019-04-07T03:12:00.462Z,99.99
2019-04-07T03:13:01.264Z,99.99
2019-04-07T03:14:01.096Z,99.99
2019-04-07T03:15:01.066Z,99.99
2019-04-07T03:16:00.860Z,99.99
2019-04-07T03:17:00.429Z,99.99
2019-04-07T03:18:00.757Z,99.99
2019-04-07T03:19:00.416Z,99.99
2019-04-07T03:20:00.814Z,99.99
2019-04-07T03:21:02.382Z,99.99
2019-04-07T03:22:00.992Z,99.99
2019-04-07T03:23:01.910Z,99.99
2019-04-07T03:24:00.983Z,99.99
2019-04-07T03:25:00.579Z,99.99
2019-04-07T03:26:00.846Z,99.99
2019-04-07T03:27:00.807Z,99.99
2019-04-07T03:28:00.522Z,99.99
2019-04-07T03:29:01.282Z,99.99
2019-04-07T03:30:01.516Z,99.99
2019-04-07T03:31:02.635Z,99.99
2019-04-07T03:32:02.812Z,99.99
2019-04-07T03:33:05.955Z,99.99
2019-04-07T03:34:04.556Z,99.99
2019-04-07T03:35:02.684Z,99.99
2019-04-07T03:36:06.584Z,99.99
2019-04-07T03:37:38.225Z,99.99
2019-04-07T03:38:01.985Z,99.99
2019-04-07T03:39:01.967Z,99.99
2019-04-07T03:40:02.548Z,99.99
2019-04-07T03:41:01.507Z,99.99
2019-04-07T03:42:01.724Z,99.99
2019-04-07T03:43:01.460Z,99.99
2019-04-07T03:44:01.653Z,99.99
2019-04-07T03:45:01.177Z,99.99
2019-04-07T03:46:01.202Z,99.99
2019-04-07T03:47:02.146Z,99.99
2019-04-07T03:48:02.144Z,99.99
2019-04-07T03:49:00.517Z,99.99
2019-04-07T03:50:00.428Z,99.99
2019-04-07T03:51:03.131Z,99.99
2019-04-07T03:52:00.590Z,99.99
2019-04-07T03:53:01.709Z,99.99
2019-04-07T03:54:00.579Z,99.99
2019-04-07T03:55:01.427Z,99.99
2019-04-07T03:56:00.356Z,99.99
2019-04-07T03:57:00.840Z,99.99
2019-04-07T03:58:00.195Z,99.99
2019-04-07T03:59:00.151Z,99.99
2019-04-07T04:00:00.592Z,99.99
2019-04-07T04:01:00.619Z,99.99
2019-04-07T04:02:00.420Z,99.99
2019-04-07T04:03:00.367Z,99.99
2019-04-07T04:04:02.156Z,99.99
2019-04-07T04:05:00.852Z,99.99
2019-04-07T04:06:00.273Z,99.99
2019-04-07T04:07:01.770Z,99.99
2019-04-07T04:08:00.891Z,99.99
2019-04-07T04:09:01.992Z,99.99
2019-04-07T04:10:01.050Z,99.99
2019-04-07T04:11:00.513Z,99.99
2019-04-07T04:12:01.272Z,99.99
2019-04-07T04:13:01.069Z,99.99
2019-04-07T04:14:01.202Z,99.99
2019-04-07T04:15:03.397Z,99.99
2019-04-07T04:16:01.234Z,99.99
2019-04-07T04:17:00.385Z,99.99
2019-04-07T04:18:01.071Z,99.99
2019-04-07T04:19:02.356Z,99.99
2019-04-07T04:20:01.019Z,99.99
2019-04-07T04:21:00.148Z,99.99
2019-04-07T04:22:02.028Z,99.99
2019-04-07T04:23:00.806Z,99.99
2019-04-07T04:24:00.546Z,99.99
2019-04-07T04:25:00.912Z,99.99
2019-04-07T04:26:00.808Z,99.99
2019-04-07T04:27:00.820Z,99.99
2019-04-07T04:28:01.094Z,99.99
2019-04-07T04:29:02.439Z,99.99
2019-04-07T04:30:00.919Z,99.99
2019-04-07T04:31:00.312Z,99.99
2019-04-07T04:31:59.843Z,99.99
2019-04-07T04:33:00.200Z,99.99
2019-04-07T04:34:01.359Z,99.99
2019-04-07T04:35:00.902Z,99.99
2019-04-07T04:36:00.497Z,99.99
2019-04-07T04:37:00.099Z,99.99
2019-04-07T04:37:59.971Z,99.99
2019-04-07T04:39:00.593Z,99.99
2019-04-07T04:39:59.998Z,99.99
2019-04-07T04:41:01.317Z,99.99
2019-04-07T04:42:00.021Z,99.99
2019-04-07T04:43:00.437Z,99.99
2019-04-07T04:44:00.520Z,99.99
2019-04-07T04:45:02.206Z,99.99
2019-04-07T04:46:00.114Z,99.99
2019-04-07T04:47:01.526Z,99.99
2019-04-07T04:48:00.168Z,99.99
2019-04-07T04:49:02.378Z,99.99
2019-04-07T04:49:59.991Z,99.99
2019-04-07T04:51:00.277Z,99.99
2019-04-07T04:52:01.032Z,99.99
2019-04-07T04:52:59.914Z,99.99
2019-04-07T04:54:00.537Z,99.99
2019-04-07T04:55:00.543Z,99.99
2019-04-07T04:55:59.867Z,99.99
2019-04-07T04:57:00.140Z,99.99
2019-04-07T04:58:00.319Z,99.99
2019-04-07T04:58:59.858Z,99.99
2019-04-07T05:00:00.213Z,99.99
2019-04-07T05:01:00.857Z,99.99
2019-04-07T05:02:00.017Z,99.99
2019-04-07T05:03:01.034Z,99.99
2019-04-07T05:04:00.607Z,99.99
2019-04-07T05:05:00.497Z,99.99
2019-04-07T05:06:00.161Z,99.99
2019-04-07T05:07:01.265Z,99.99
2019-04-07T05:08:06.696Z,99.99
2019-04-07T05:08:59.914Z,99.99
2019-04-07T05:10:00.054Z,99.99
2019-04-07T05:11:00.037Z,99.99
2019-04-07T05:11:59.934Z,99.99
2019-04-07T05:13:00.289Z,99.99
2019-04-07T05:14:00.535Z,99.99
2019-04-07T05:15:00.346Z,99.99
2019-04-07T05:15:59.713Z,99.99
2019-04-07T05:16:59.704Z,99.99
2019-04-07T05:17:59.525Z,99.99
2019-04-07T05:18:59.665Z,99.99
2019-04-07T05:20:00.219Z,99.99
2019-04-07T05:20:59.794Z,99.99
2019-04-07T05:21:59.852Z,99.99
2019-04-07T05:23:00.038Z,99.99
2019-04-07T05:24:00.174Z,99.99
2019-04-07T05:24:59.979Z,99.99
2019-04-07T05:26:00.378Z,99.99
2019-04-07T05:26:59.753Z,99.99
2019-04-07T05:28:01.200Z,99.99
2019-04-07T05:28:59.639Z,99.99
2019-04-07T05:30:00.111Z,99.99
2019-04-07T05:31:00.385Z,99.99
2019-04-07T05:32:00.069Z,99.99
2019-04-07T05:32:59.859Z,98.03
2019-04-07T05:34:00.379Z,97.46
2019-04-07T05:35:00.996Z,96.98
2019-04-07T05:35:59.353Z,96.84
2019-04-07T05:36:59.702Z,96.08
2019-04-07T05:38:06.649Z,94.93
2019-04-07T05:38:59.957Z,93.79
2019-04-07T05:39:59.575Z,93.03
2019-04-07T05:41:00.302Z,92.18
2019-04-07T05:42:00.124Z,91.17
2019-04-07T05:42:59.897Z,91.08
2019-04-07T05:43:59.305Z,91.17
2019-04-07T05:44:59.659Z,91.22
2019-04-07T05:46:00.606Z,92.08
2019-04-07T05:46:59.322Z,91.99
2019-04-07T05:48:00.415Z,91.99
2019-04-07T05:49:00.513Z,91.99
2019-04-07T05:50:03.862Z,92.89
2019-04-07T05:51:03.447Z,93.74
2019-04-07T05:52:05.559Z,94.79
2019-04-07T05:52:59.973Z,96.12
2019-04-07T05:54:00.224Z,96.41
2019-04-07T05:55:00.018Z,96.79
2019-04-07T05:56:00.099Z,97.98
2019-04-07T05:57:03.359Z,98.08
2019-04-07T05:58:03.344Z,99.69
2019-04-07T05:58:59.565Z,99.99
2019-04-07T05:59:59.498Z,99.99
2019-04-07T06:01:00.189Z,99.99
2019-04-07T06:02:04.135Z,99.99
2019-04-07T06:03:01.368Z,99.99
2019-04-07T06:04:00.014Z,99.99
2019-04-07T06:05:01.698Z,99.99
2019-04-07T06:06:00.462Z,99.99
2019-04-07T06:07:00.304Z,99.99
2019-04-07T06:08:19.368Z,99.99
2019-04-07T06:09:00.028Z,99.99
2019-04-07T06:10:00.008Z,99.99
2019-04-07T06:11:04.122Z,99.99
2019-04-07T06:11:59.901Z,99.99
2019-04-07T06:12:59.773Z,99.99
2019-04-07T06:13:59.626Z,99.99
2019-04-07T06:14:59.687Z,99.99
2019-04-07T06:15:59.961Z,99.99
2019-04-07T06:16:59.995Z,99.99
2019-04-07T06:18:04.063Z,99.99
2019-04-07T06:19:01.097Z,99.99
2019-04-07T06:20:00.091Z,99.99
2019-04-07T06:20:59.440Z,99.99
2019-04-07T06:21:59.441Z,99.99
2019-04-07T06:23:00.358Z,99.99
2019-04-07T06:24:03.551Z,99.99
2019-04-07T06:25:01.513Z,99.99
2019-04-07T06:26:01.365Z,99.99
2019-04-07T06:26:59.924Z,99.99
2019-04-07T06:27:59.103Z,99.99
2019-04-07T06:29:01.560Z,99.99
2019-04-07T06:30:02.531Z,99.99
2019-04-07T06:31:02.034Z,99.99
2019-04-07T06:32:03.549Z,99.99
2019-04-07T06:32:59.433Z,99.99
2019-04-07T06:33:59.333Z,99.99
2019-04-07T06:34:59.413Z,99.99
2019-04-07T06:36:00.522Z,99.99
2019-04-07T06:36:59.053Z,99.99
2019-04-07T06:38:05.962Z,99.65
2019-04-07T06:38:59.378Z,99.08
2019-04-07T06:40:00.096Z,97.22
2019-04-07T06:41:03.174Z,95.22
2019-04-07T06:42:03.410Z,94.37
2019-04-07T06:42:59.078Z,94.27
2019-04-07T06:44:14.751Z,92.98
2019-04-07T06:45:02.708Z,92.6
2019-04-07T06:45:59.775Z,93.17
2019-04-07T06:47:04.449Z,91.94
2019-04-07T06:48:01.394Z,92.22
2019-04-07T06:48:59.303Z,92.22
2019-04-07T06:49:59.899Z,92.03
2019-04-07T06:51:02.832Z,92.03
2019-04-07T06:52:04.776Z,92.13
2019-04-07T06:52:59.314Z,92.69
2019-04-07T06:53:59.116Z,91.94
2019-04-07T06:55:00.194Z,91.94
2019-04-07T06:56:05.172Z,91.22
2019-04-07T06:56:59.062Z,89.6
2019-04-07T06:58:00.313Z,87.26
2019-04-07T06:58:59.212Z,85.87
2019-04-07T06:59:59.759Z,82.48
2019-04-07T07:01:02.499Z,78.7
2019-04-07T07:02:02.199Z,76.16
2019-04-07T07:03:04.316Z,72.66
2019-04-07T07:03:59.681Z,70.59
2019-04-07T07:04:59.613Z,68.04
2019-04-07T07:06:01.378Z,65.62
2019-04-07T07:06:59.076Z,64.47
2019-04-07T07:07:59.763Z,63.83
2019-04-07T07:08:59.577Z,62.87
2019-04-07T07:10:02.517Z,61.91
2019-04-07T07:10:59.742Z,62.49
2019-04-07T07:12:00.386Z,63.7
2019-04-07T07:13:07.911Z,65.01
2019-04-07T07:13:59.273Z,66.13
2019-04-07T07:15:03.595Z,67.53
2019-04-07T07:16:00.385Z,69.54
2019-04-07T07:16:59.509Z,71.42
2019-04-07T07:18:02.446Z,71.95
2019-04-07T07:19:01.974Z,72.91
2019-04-07T07:20:04.616Z,72.62
2019-04-07T07:21:03.973Z,72.18
2019-04-07T07:21:59.243Z,71.32
2019-04-07T07:23:00.751Z,71.42
2019-04-07T07:23:59.263Z,71.89
2019-04-07T07:25:03.073Z,71.61
2019-04-07T07:26:04.316Z,70.84
2019-04-07T07:27:00.417Z,70.21
2019-04-07T07:27:59.943Z,68.62
2019-04-07T07:28:59.949Z,66.25
2019-04-07T07:29:59.221Z,64.18
2019-04-07T07:30:59.805Z,61.24
2019-04-07T07:32:06.377Z,60.6
2019-04-07T07:32:59.668Z,60.03
2019-04-07T07:34:00.137Z,59.74
2019-04-07T07:34:59.962Z,59.58
2019-04-07T07:35:59.441Z,58.81
2019-04-07T07:37:01.081Z,58.52
2019-04-07T07:38:02.681Z,58.23
2019-04-07T07:39:08.493Z,58.62
2019-04-07T07:39:59.702Z,58.71
2019-04-07T07:41:01.322Z,59.77
2019-04-07T07:41:59.368Z,59.64
2019-04-07T07:43:02.276Z,59.09
2019-04-07T07:44:07.790Z,59.55
2019-04-07T07:44:59.490Z,60.79
2019-04-07T07:46:00.137Z,61.53
2019-04-07T07:46:59.501Z,61.15
2019-04-07T07:48:00.071Z,60.12
2019-04-07T07:49:02.919Z,59
2019-04-07T07:49:59.752Z,58.81
2019-04-07T07:50:59.066Z,59.38
2019-04-07T07:51:59.436Z,59
2019-04-07T07:52:59.306Z,58.81
2019-04-07T07:54:03.504Z,58.23
2019-04-07T07:55:03.755Z,58.81
2019-04-07T07:56:00.030Z,59.26
2019-04-07T07:56:59.972Z,60.96
2019-04-07T07:58:01.556Z,62.01
2019-04-07T07:59:03.569Z,62.87
2019-04-07T08:00:00.422Z,61.91
2019-04-07T08:01:03.278Z,62.1
2019-04-07T08:01:59.910Z,63.13
2019-04-07T08:02:59.272Z,64.15
2019-04-07T08:03:59.726Z,66.13
2019-04-07T08:05:01.829Z,66.89
2019-04-07T08:06:04.082Z,67.53
2019-04-07T08:07:02.107Z,68.58
2019-04-07T08:07:59.388Z,68.96
2019-04-07T08:09:15.429Z,69.6
2019-04-07T08:10:00.580Z,69.98
2019-04-07T08:11:03.045Z,70.17
2019-04-07T08:12:01.561Z,68.58
2019-04-07T08:13:00.597Z,69.89
2019-04-07T08:13:59.283Z,69.89
2019-04-07T08:15:01.701Z,69.98
2019-04-07T08:16:01.948Z,70.17
2019-04-07T08:17:03.658Z,70.36
2019-04-07T08:18:03.146Z,70.94
2019-04-07T08:19:01.726Z,69.7
2019-04-07T08:19:59.944Z,67.53
2019-04-07T08:20:59.049Z,66.86
2019-04-07T08:22:00.579Z,65.65
2019-04-07T08:22:59.358Z,64.43
2019-04-07T08:23:59.286Z,63.8
2019-04-07T08:24:59.970Z,60.96
2019-04-07T08:26:00.470Z,58.69
2019-04-07T08:27:01.444Z,57.37
2019-04-07T08:28:03.548Z,55.38
2019-04-07T08:28:59.920Z,55.19
2019-04-07T08:29:59.664Z,56.15
2019-04-07T08:31:00.773Z,55.86
2019-04-07T08:31:59.785Z,55.86
2019-04-07T08:33:02.375Z,56.79
2019-04-07T08:34:02.412Z,58.11
2019-04-07T08:35:02.035Z,59.9
2019-04-07T08:35:59.854Z,60.76
2019-04-07T08:37:00.769Z,62.07
2019-04-07T08:38:00.980Z,63.19
2019-04-07T08:38:59.631Z,64.4
2019-04-07T08:40:04.175Z,65.45
2019-04-07T08:41:00.159Z,65.42
2019-04-07T08:42:01.121Z,65.14
2019-04-07T08:43:00.448Z,64.75
2019-04-07T08:44:00.351Z,65.14
2019-04-07T08:45:03.232Z,66
2019-04-07T08:46:02.185Z,65.42
2019-04-07T08:47:01.418Z,65.71
2019-04-07T08:47:59.511Z,64.95
2019-04-07T08:48:59.084Z,65.04
2019-04-07T08:50:00.292Z,65.87
2019-04-07T08:51:01.811Z,66.63
2019-04-07T08:52:03.374Z,67.02
2019-04-07T08:53:02.082Z,67.11
2019-04-07T08:53:59.858Z,67.69
2019-04-07T08:55:00.087Z,67.69
2019-04-07T08:55:59.878Z,68.45
2019-04-07T08:57:00.859Z,69.21
2019-04-07T08:58:05.574Z,69.27
2019-04-07T08:58:59.344Z,69.37
2019-04-07T08:59:59.733Z,69.66
2019-04-07T09:00:59.771Z,69.56
2019-04-07T09:01:59.404Z,70.61
2019-04-07T09:03:11.289Z,70.23
2019-04-07T09:03:59.931Z,69.66
2019-04-07T09:05:00.161Z,69.18
2019-04-07T09:06:00.996Z,68.7
2019-04-07T09:07:04.139Z,69.18
2019-04-07T09:08:03.465Z,69.76
2019-04-07T09:09:00.370Z,70.04
2019-04-07T09:09:59.925Z,69.76
2019-04-07T09:10:59.416Z,69.95
2019-04-07T09:12:00.406Z,69.21
2019-04-07T09:13:07.725Z,68.64
2019-04-07T09:14:00.187Z,68.55
2019-04-07T09:15:02.759Z,67.11
2019-04-07T09:15:59.994Z,67.34
2019-04-07T09:17:00.549Z,66.28
2019-04-07T09:18:00.720Z,65.71
2019-04-07T09:19:07.300Z,66
2019-04-07T09:19:59.601Z,66.28
2019-04-07T09:20:59.509Z,65.71
2019-04-07T09:21:59.458Z,66.09
2019-04-07T09:23:00.608Z,66.67
2019-04-07T09:24:00.344Z,66.19
2019-04-07T09:25:03.293Z,66.57
2019-04-07T09:26:00.144Z,67.24
2019-04-07T09:27:00.195Z,67.53
2019-04-07T09:27:59.659Z,67.49
2019-04-07T09:28:59.801Z,67.49
2019-04-07T09:30:01.233Z,67.88
2019-04-07T09:31:01.536Z,68.26
2019-04-07T09:31:59.971Z,67.78
2019-04-07T09:32:59.581Z,68.07
2019-04-07T09:33:59.856Z,68.26
2019-04-07T09:34:59.624Z,67.97
2019-04-07T09:36:01.483Z,68.07
2019-04-07T09:37:00.096Z,67.43
2019-04-07T09:38:00.443Z,66.19
2019-04-07T09:39:03.888Z,65.61
2019-04-07T09:40:04.742Z,65.74
2019-04-07T09:41:00.437Z,65.74
2019-04-07T09:41:59.630Z,65.26
2019-04-07T09:43:03.091Z,65.17
2019-04-07T09:44:01.454Z,65.26
2019-04-07T09:44:59.950Z,64.59
2019-04-07T09:45:59.699Z,64.82
2019-04-07T09:47:00.683Z,64.34
2019-04-07T09:48:00.592Z,62.04
2019-04-07T09:49:00.025Z,62.04
2019-04-07T09:50:01.550Z,61.94
2019-04-07T09:51:07.257Z,61.76
2019-04-07T09:51:59.947Z,61.08
2019-04-07T09:52:59.290Z,61.28
2019-04-07T09:54:00.294Z,61.88
2019-04-07T09:54:59.569Z,61.69
2019-04-07T09:56:00.139Z,61.88
2019-04-07T09:57:02.744Z,62.55
2019-04-07T09:57:59.519Z,62.84
2019-04-07T09:58:59.298Z,61.79
2019-04-07T09:59:59.448Z,61.15
2019-04-07T10:01:01.287Z,59.71
2019-04-07T10:02:02.690Z,58.94
2019-04-07T10:02:59.303Z,57.98
2019-04-07T10:03:59.293Z,57.98
2019-04-07T10:04:59.312Z,58.49
2019-04-07T10:05:59.297Z,58.08
2019-04-07T10:06:59.044Z,57.03
2019-04-07T10:07:59.299Z,57.06
2019-04-07T10:08:59.947Z,57.31
2019-04-07T10:10:14.413Z,58.17
2019-04-07T10:10:59.658Z,58.75
2019-04-07T10:11:59.051Z,58.84
2019-04-07T10:13:00.641Z,58.84
2019-04-07T10:13:59.915Z,59.23
2019-04-07T10:15:00.638Z,59.04
2019-04-07T10:15:59.933Z,56.86
2019-04-07T10:16:59.875Z,55.42
2019-04-07T10:18:00.512Z,55.62
2019-04-07T10:19:00.693Z,55.8
2019-04-07T10:19:59.897Z,55.58
2019-04-07T10:21:00.078Z,55.78
2019-04-07T10:22:01.323Z,56.26
2019-04-07T10:23:00.640Z,56.26
2019-04-07T10:24:00.730Z,57.12
2019-04-07T10:24:59.530Z,57.28
2019-04-07T10:26:00.447Z,58.24
2019-04-07T10:26:59.065Z,58.34
2019-04-07T10:27:59.361Z,58.65
2019-04-07T10:28:59.526Z,58.27
2019-04-07T10:30:00.199Z,59.23
2019-04-07T10:30:59.802Z,59.04
2019-04-07T10:32:00.014Z,59.23
2019-04-07T10:33:00.195Z,59.58
2019-04-07T10:33:59.448Z,59.58
2019-04-07T10:35:00.117Z,59.87
2019-04-07T10:35:59.325Z,60.35
2019-04-07T10:37:02.825Z,59.87
2019-04-07T10:37:59.378Z,59.97
2019-04-07T10:38:59.319Z,60.16
2019-04-07T10:40:02.796Z,60.44
2019-04-07T10:40:59.792Z,60.25
2019-04-07T10:42:00.175Z,60.73
2019-04-07T10:43:00.605Z,60.64
2019-04-07T10:44:00.044Z,60.7
2019-04-07T10:45:00.367Z,60.54
2019-04-07T10:46:00.321Z,60.25
2019-04-07T10:46:59.325Z,59.87
2019-04-07T10:48:00.363Z,60.25
2019-04-07T10:48:59.178Z,61.21
2019-04-07T10:50:07.465Z,61.02
2019-04-07T10:50:59.128Z,60.76
2019-04-07T10:51:59.706Z,61.72
2019-04-07T10:53:00.273Z,62.59
2019-04-07T10:53:59.431Z,62.68
2019-04-07T10:54:59.437Z,61.37
2019-04-07T10:55:59.968Z,60.31
2019-04-07T10:56:59.857Z,58.91
2019-04-07T10:57:59.835Z,58.62
2019-04-07T10:58:59.376Z,58.04
2019-04-07T10:59:59.359Z,58.33
2019-04-07T11:00:59.719Z,58.14
2019-04-07T11:02:00.332Z,58.69
2019-04-07T11:02:59.865Z,59.06
2019-04-07T11:04:00.102Z,60.03
2019-04-07T11:05:00.610Z,59.9
2019-04-07T11:06:00.375Z,59.61
2019-04-07T11:07:00.066Z,60
2019-04-07T11:08:00.365Z,59.8
2019-04-07T11:09:00.256Z,59.16
2019-04-07T11:10:00.132Z,58.69
2019-04-07T11:10:59.932Z,58.01
2019-04-07T11:12:00.030Z,57.08
2019-04-07T11:12:59.600Z,57.28
2019-04-07T11:13:59.635Z,56.79
2019-04-07T11:15:00.069Z,56.98
2019-04-07T11:16:00.309Z,57.08
2019-04-07T11:17:00.923Z,56.79
2019-04-07T11:17:59.305Z,56.7
2019-04-07T11:18:59.093Z,56.41
2019-04-07T11:19:59.150Z,56.31
2019-04-07T11:20:59.660Z,56.24
2019-04-07T11:21:59.087Z,56.15
2019-04-07T11:23:00.852Z,55.96
2019-04-07T11:24:01.151Z,54.8
2019-04-07T11:24:59.639Z,55.1
2019-04-07T11:25:59.433Z,55.29
2019-04-07T11:26:59.466Z,55.29
2019-04-07T11:27:59.497Z,55.26
2019-04-07T11:28:59.376Z,54.58
2019-04-07T11:30:00.343Z,53.44
2019-04-07T11:31:00.452Z,54.39
2019-04-07T11:31:59.356Z,54.3
2019-04-07T11:33:00.755Z,54.97
2019-04-07T11:33:59.640Z,54.97
2019-04-07T11:34:59.838Z,55.16
2019-04-07T11:36:00.516Z,55.45
2019-04-07T11:36:59.581Z,55.07
2019-04-07T11:38:00.197Z,54.39
2019-04-07T11:38:59.381Z,54.42
2019-04-07T11:40:00.178Z,53.17
2019-04-07T11:41:00.168Z,52.4
2019-04-07T11:41:59.548Z,52.5
2019-04-07T11:43:00.332Z,52.6
2019-04-07T11:43:59.660Z,52.69
2019-04-07T11:44:59.949Z,52.89
2019-04-07T11:46:04.613Z,52.95
2019-04-07T11:47:00.471Z,53.63
2019-04-07T11:47:59.189Z,54.21
2019-04-07T11:49:00.829Z,54.66
2019-04-07T11:50:00.293Z,54.85
2019-04-07T11:51:00.140Z,54.66
2019-04-07T11:52:00.115Z,53.72
2019-04-07T11:52:59.494Z,53.15
2019-04-07T11:54:01.502Z,53.44
2019-04-07T11:54:59.809Z,53.24
2019-04-07T11:56:01.398Z,53.44
2019-04-07T11:56:59.528Z,52.76
2019-04-07T11:58:16.774Z,52.86
2019-04-07T11:59:00.623Z,53.41
2019-04-07T12:00:00.009Z,53.41
2019-04-07T12:00:59.583Z,53.5
2019-04-07T12:01:59.762Z,53.12
2019-04-07T12:02:59.538Z,53.41
2019-04-07T12:03:59.965Z,53.31
2019-04-07T12:05:00.266Z,53.22
2019-04-07T12:05:59.913Z,53.79
2019-04-07T12:07:00.437Z,53.79
2019-04-07T12:08:01.718Z,53.34
2019-04-07T12:09:00.262Z,53.15
2019-04-07T12:09:59.618Z,52.48
2019-04-07T12:11:06.558Z,52.95
2019-04-07T12:11:59.624Z,52.86
2019-04-07T12:13:00.328Z,53.05
2019-04-07T12:13:59.741Z,53.05
2019-04-07T12:15:00.252Z,52.86
2019-04-07T12:16:00.402Z,52.95
2019-04-07T12:17:06.808Z,52.76
2019-04-07T12:18:00.212Z,52.31
2019-04-07T12:19:00.392Z,52.89
2019-04-07T12:20:00.286Z,52.67
2019-04-07T12:21:06.351Z,53.24
2019-04-07T12:22:01.125Z,52.67
2019-04-07T12:22:59.297Z,52.95
2019-04-07T12:23:59.420Z,52.67
2019-04-07T12:25:04.389Z,52.38
2019-04-07T12:26:02.181Z,52.28
2019-04-07T12:27:03.570Z,52.09
2019-04-07T12:28:00.070Z,52.02
2019-04-07T12:28:59.416Z,51.45
2019-04-07T12:30:00.119Z,51.73
2019-04-07T12:30:59.813Z,51.64
2019-04-07T12:32:00.658Z,51.16
2019-04-07T12:32:59.754Z,51.64
2019-04-07T12:33:59.903Z,51.9
2019-04-07T12:34:59.886Z,52
2019-04-07T12:36:00.050Z,52.22
2019-04-07T12:37:05.208Z,51.71
2019-04-07T12:38:01.595Z,52.09
2019-04-07T12:38:59.852Z,52.31
2019-04-07T12:40:00.940Z,51.64
2019-04-07T12:41:20.801Z,51.64
2019-04-07T12:42:03.858Z,51.45
2019-04-07T12:42:59.292Z,51.45
2019-04-07T12:43:59.496Z,51.64
2019-04-07T12:44:59.246Z,51.93
2019-04-07T12:45:59.399Z,52.48
2019-04-07T12:46:59.583Z,52
2019-04-07T12:47:59.551Z,52.38
2019-04-07T12:48:59.930Z,52.76
2019-04-07T12:49:59.677Z,53.05
2019-04-07T12:50:59.730Z,52.76
2019-04-07T12:52:00.212Z,52.76
2019-04-07T12:53:03.935Z,52.57
2019-04-07T12:54:00.315Z,52.95